EZY748A EGSS-EGPH
Flight info
| Callsign | EZY748A |
|---|---|
| Flight time | 0h 53m |
| Altitude | 32000 |
| Route | UTAVA Q75 BUZAD T420 TNT UN57 POL UN601 RIBEL DCT INPIP |
| Aircraft | A320/M-SDE3FGHIRWY/LB1 |
Departure
| Time | 2026-05-04 17:29 |
|---|---|
| Airport | London Stansted Airport (EGSS) |
Arrival
| Time | 2026-05-04 18:22 |
|---|---|
| Airport | Edinburgh Airport (EGPH) |
| Time | Latitude | Longitude | Altitude | Speed | Heading |
|---|---|---|---|---|---|
| 2026-05-04 17:05 | 51.88906 | 0.25274 | 334 ft | 0 kts | 43° |
| 2026-05-04 17:20 | 51.88903 | 0.25269 | 337 ft | 3 kts | 42° |
| 2026-05-04 17:20 | 51.88859 | 0.25227 | 331 ft | 4 kts | 351° |
| 2026-05-04 17:20 | 51.88846 | 0.25235 | 331 ft | 1 kts | 313° |
| 2026-05-04 17:23 | 51.88891 | 0.25157 | 333 ft | 25 kts | 314° |
| 2026-05-04 17:23 | 51.88977 | 0.24933 | 350 ft | 21 kts | 293° |
| 2026-05-04 17:23 | 51.88912 | 0.24588 | 349 ft | 20 kts | 221° |
| 2026-05-04 17:24 | 51.88811 | 0.24433 | 349 ft | 20 kts | 226° |
| 2026-05-04 17:24 | 51.88451 | 0.23881 | 336 ft | 38 kts | 224° |
| 2026-05-04 17:25 | 51.88322 | 0.23685 | 336 ft | 39 kts | 223° |
| 2026-05-04 17:25 | 51.87918 | 0.23086 | 334 ft | 40 kts | 222° |
| 2026-05-04 17:26 | 51.87543 | 0.22523 | 330 ft | 28 kts | 224° |
| 2026-05-04 17:26 | 51.87575 | 0.22328 | 328 ft | 0 kts | 312° |
| 2026-05-04 17:27 | 51.87602 | 0.22288 | 327 ft | 12 kts | 322° |
| 2026-05-04 17:27 | 51.87736 | 0.22333 | 331 ft | 0 kts | 39° |
| 2026-05-04 17:28 | 51.88197 | 0.23019 | 330 ft | 113 kts | 43° |
| 2026-05-04 17:29 | 51.90754 | 0.26900 | 1396 ft | 200 kts | 42° |
| 2026-05-04 17:29 | 51.94825 | 0.29680 | 3262 ft | 251 kts | 340° |
| 2026-05-04 17:30 | 51.97325 | 0.22364 | 4963 ft | 265 kts | 279° |
| 2026-05-04 17:31 | 51.97919 | 0.16503 | 5008 ft | 262 kts | 278° |
| 2026-05-04 17:31 | 51.98807 | 0.07764 | 5013 ft | 262 kts | 279° |
| 2026-05-04 17:32 | 51.98661 | 0.01931 | 5006 ft | 261 kts | 263° |
| 2026-05-04 17:33 | 51.97995 | -0.06819 | 5013 ft | 260 kts | 263° |
| 2026-05-04 17:33 | 51.97770 | -0.09765 | 5324 ft | 268 kts | 263° |
| 2026-05-04 17:34 | 51.97095 | -0.18713 | 8311 ft | 269 kts | 263° |
| 2026-05-04 17:34 | 51.96863 | -0.21726 | 9283 ft | 270 kts | 262° |
| 2026-05-04 17:35 | 51.96108 | -0.31437 | 10801 ft | 320 kts | 262° |
| 2026-05-04 17:35 | 51.95525 | -0.38766 | 12123 ft | 334 kts | 262° |
| 2026-05-04 17:35 | 51.95225 | -0.42530 | 12888 ft | 338 kts | 263° |
| 2026-05-04 17:36 | 51.94932 | -0.46329 | 13686 ft | 341 kts | 264° |
| 2026-05-04 17:36 | 51.95016 | -0.50200 | 14292 ft | 348 kts | 280° |
| 2026-05-04 17:36 | 51.95761 | -0.53944 | 14950 ft | 353 kts | 295° |
| 2026-05-04 17:36 | 51.97128 | -0.57303 | 15530 ft | 361 kts | 310° |
| 2026-05-04 17:37 | 51.99057 | -0.59957 | 16131 ft | 369 kts | 326° |
| 2026-05-04 17:37 | 52.01273 | -0.62119 | 16778 ft | 373 kts | 327° |
| 2026-05-04 17:37 | 52.03518 | -0.64302 | 17396 ft | 378 kts | 327° |
| 2026-05-04 17:37 | 52.05787 | -0.66522 | 18007 ft | 383 kts | 327° |
| 2026-05-04 17:38 | 52.08076 | -0.68769 | 18602 ft | 386 kts | 327° |
| 2026-05-04 17:38 | 52.10387 | -0.71047 | 19163 ft | 390 kts | 327° |
| 2026-05-04 17:38 | 52.12714 | -0.73339 | 19712 ft | 393 kts | 326° |
| 2026-05-04 17:38 | 52.15057 | -0.75650 | 20255 ft | 395 kts | 326° |
| 2026-05-04 17:39 | 52.19795 | -0.80346 | 21323 ft | 401 kts | 326° |
| 2026-05-04 17:39 | 52.22188 | -0.82717 | 21849 ft | 404 kts | 326° |
| 2026-05-04 17:39 | 52.24600 | -0.85103 | 22361 ft | 407 kts | 326° |
| 2026-05-04 17:40 | 52.27029 | -0.87511 | 22859 ft | 410 kts | 325° |
| 2026-05-04 17:40 | 52.29472 | -0.89936 | 23398 ft | 412 kts | 324° |
| 2026-05-04 17:40 | 52.31925 | -0.92374 | 23909 ft | 412 kts | 324° |
| 2026-05-04 17:40 | 52.34382 | -0.94819 | 24337 ft | 415 kts | 324° |
| 2026-05-04 17:41 | 52.36849 | -0.97280 | 24743 ft | 417 kts | 325° |
| 2026-05-04 17:41 | 52.39332 | -0.99763 | 25166 ft | 419 kts | 325° |
| 2026-05-04 17:41 | 52.41832 | -1.02270 | 25520 ft | 423 kts | 325° |
| 2026-05-04 17:41 | 52.44316 | -1.04761 | 25875 ft | 425 kts | 325° |
| 2026-05-04 17:42 | 52.46845 | -1.07298 | 26250 ft | 428 kts | 326° |
| 2026-05-04 17:42 | 52.49394 | -1.09854 | 26629 ft | 430 kts | 326° |
| 2026-05-04 17:42 | 52.51951 | -1.12420 | 27004 ft | 432 kts | 326° |
| 2026-05-04 17:42 | 52.54521 | -1.15006 | 27358 ft | 435 kts | 327° |
| 2026-05-04 17:43 | 52.57104 | -1.17610 | 27732 ft | 437 kts | 327° |
| 2026-05-04 17:43 | 52.59706 | -1.20235 | 28109 ft | 440 kts | 327° |
| 2026-05-04 17:43 | 52.62319 | -1.22874 | 28451 ft | 442 kts | 327° |
| 2026-05-04 17:43 | 52.64948 | -1.25532 | 28793 ft | 444 kts | 327° |
| 2026-05-04 17:44 | 52.67587 | -1.28204 | 29127 ft | 446 kts | 327° |
| 2026-05-04 17:44 | 52.70241 | -1.30900 | 29449 ft | 449 kts | 327° |
| 2026-05-04 17:44 | 52.72905 | -1.33615 | 29766 ft | 451 kts | 327° |
| 2026-05-04 17:44 | 52.75585 | -1.36350 | 30123 ft | 453 kts | 327° |
| 2026-05-04 17:45 | 52.78275 | -1.39098 | 30379 ft | 455 kts | 329° |
| 2026-05-04 17:45 | 52.80975 | -1.41856 | 30640 ft | 457 kts | 329° |
| 2026-05-04 17:45 | 52.83686 | -1.44626 | 30920 ft | 458 kts | 329° |
| 2026-05-04 17:45 | 52.86397 | -1.47399 | 31286 ft | 457 kts | 329° |
| 2026-05-04 17:46 | 52.89102 | -1.50170 | 31646 ft | 457 kts | 329° |
| 2026-05-04 17:46 | 52.91804 | -1.52942 | 31971 ft | 457 kts | 330° |
| 2026-05-04 17:46 | 52.97148 | -1.58456 | 32057 ft | 447 kts | 330° |
| 2026-05-04 17:47 | 53.02399 | -1.63890 | 32056 ft | 444 kts | 331° |
| 2026-05-04 17:47 | 53.07861 | -1.68527 | 32057 ft | 439 kts | 342° |
| 2026-05-04 17:48 | 53.13563 | -1.72033 | 32057 ft | 439 kts | 342° |
| 2026-05-04 17:48 | 53.19290 | -1.75587 | 32056 ft | 439 kts | 342° |
| 2026-05-04 17:49 | 53.25011 | -1.79164 | 32036 ft | 438 kts | 342° |
| 2026-05-04 17:49 | 53.30727 | -1.82737 | 32045 ft | 437 kts | 342° |
| 2026-05-04 17:50 | 53.36421 | -1.86301 | 32046 ft | 437 kts | 342° |
| 2026-05-04 17:50 | 53.42078 | -1.89848 | 32046 ft | 437 kts | 342° |
| 2026-05-04 17:51 | 53.47768 | -1.93426 | 32039 ft | 436 kts | 342° |
| 2026-05-04 17:51 | 53.53455 | -1.97016 | 32036 ft | 436 kts | 342° |
| 2026-05-04 17:52 | 53.59136 | -2.00608 | 32034 ft | 436 kts | 342° |
| 2026-05-04 17:52 | 53.64815 | -2.04218 | 32033 ft | 436 kts | 342° |
| 2026-05-04 17:53 | 53.70492 | -2.07844 | 32034 ft | 436 kts | 342° |
| 2026-05-04 17:53 | 53.76165 | -2.11486 | 32026 ft | 436 kts | 341° |
| 2026-05-04 17:54 | 53.81790 | -2.15291 | 32035 ft | 435 kts | 340° |
| 2026-05-04 17:54 | 53.87356 | -2.19148 | 32036 ft | 435 kts | 340° |
| 2026-05-04 17:55 | 53.92963 | -2.23014 | 32040 ft | 435 kts | 340° |
| 2026-05-04 17:55 | 53.98573 | -2.26873 | 32025 ft | 434 kts | 340° |
| 2026-05-04 17:56 | 54.04170 | -2.30720 | 32033 ft | 434 kts | 340° |
| 2026-05-04 17:56 | 54.09761 | -2.34579 | 32035 ft | 433 kts | 339° |
| 2026-05-04 17:57 | 54.15340 | -2.38449 | 32029 ft | 433 kts | 340° |
| 2026-05-04 17:57 | 54.20916 | -2.42328 | 32029 ft | 433 kts | 339° |
| 2026-05-04 17:58 | 54.26486 | -2.46209 | 32033 ft | 431 kts | 339° |
| 2026-05-04 17:58 | 54.32032 | -2.50088 | 32040 ft | 430 kts | 338° |
| 2026-05-04 17:59 | 54.37569 | -2.53966 | 32033 ft | 429 kts | 338° |
| 2026-05-04 18:00 | 54.45860 | -2.59800 | 32029 ft | 429 kts | 338° |
| 2026-05-04 18:00 | 54.51353 | -2.63668 | 32033 ft | 428 kts | 337° |
| 2026-05-04 18:01 | 54.56857 | -2.67579 | 32031 ft | 428 kts | 337° |
| 2026-05-04 18:01 | 54.62351 | -2.71481 | 31552 ft | 424 kts | 337° |
| 2026-05-04 18:02 | 54.67783 | -2.75341 | 30354 ft | 419 kts | 337° |
| 2026-05-04 18:02 | 54.70467 | -2.77260 | 29719 ft | 416 kts | 337° |
| 2026-05-04 18:02 | 54.73135 | -2.79172 | 29140 ft | 411 kts | 336° |
| 2026-05-04 18:02 | 54.75770 | -2.81060 | 28570 ft | 407 kts | 336° |
| 2026-05-04 18:03 | 54.78376 | -2.82927 | 28011 ft | 403 kts | 336° |
| 2026-05-04 18:03 | 54.80920 | -2.84749 | 27467 ft | 399 kts | 336° |
| 2026-05-04 18:03 | 54.83473 | -2.86585 | 26921 ft | 395 kts | 336° |
| 2026-05-04 18:03 | 54.85999 | -2.88407 | 26382 ft | 392 kts | 336° |
| 2026-05-04 18:04 | 54.88500 | -2.90214 | 25844 ft | 389 kts | 336° |
| 2026-05-04 18:04 | 54.91021 | -2.92034 | 25294 ft | 394 kts | 336° |
| 2026-05-04 18:04 | 54.96075 | -2.95690 | 24195 ft | 392 kts | 336° |
| 2026-05-04 18:05 | 54.98588 | -2.97509 | 23648 ft | 390 kts | 335° |
| 2026-05-04 18:05 | 55.01088 | -2.99326 | 23039 ft | 388 kts | 335° |
| 2026-05-04 18:05 | 55.03570 | -3.01135 | 22497 ft | 385 kts | 335° |
| 2026-05-04 18:05 | 55.06031 | -3.02931 | 21976 ft | 382 kts | 335° |
| 2026-05-04 18:06 | 55.10893 | -3.06472 | 20913 ft | 376 kts | 335° |
| 2026-05-04 18:06 | 55.13295 | -3.08223 | 20386 ft | 373 kts | 335° |
| 2026-05-04 18:06 | 55.15681 | -3.09964 | 19852 ft | 371 kts | 335° |
| 2026-05-04 18:07 | 55.18079 | -3.11716 | 19086 ft | 375 kts | 335° |
| 2026-05-04 18:07 | 55.20499 | -3.13490 | 18355 ft | 379 kts | 335° |
| 2026-05-04 18:07 | 55.22934 | -3.15280 | 17764 ft | 377 kts | 335° |
| 2026-05-04 18:07 | 55.25312 | -3.17030 | 17625 ft | 363 kts | 335° |
| 2026-05-04 18:08 | 55.27596 | -3.18713 | 17486 ft | 350 kts | 335° |
| 2026-05-04 18:08 | 55.29872 | -3.19993 | 17353 ft | 340 kts | 347° |
| 2026-05-04 18:08 | 55.32198 | -3.20297 | 17219 ft | 331 kts | 359° |
| 2026-05-04 18:08 | 55.34467 | -3.20154 | 16968 ft | 321 kts | 359° |
| 2026-05-04 18:09 | 55.38846 | -3.19882 | 15698 ft | 312 kts | 359° |
| 2026-05-04 18:09 | 55.43146 | -3.19640 | 14865 ft | 307 kts | 359° |
| 2026-05-04 18:10 | 55.45285 | -3.19517 | 14457 ft | 308 kts | 359° |
| 2026-05-04 18:10 | 55.47426 | -3.19391 | 14061 ft | 309 kts | 359° |
| 2026-05-04 18:10 | 55.49581 | -3.19259 | 13774 ft | 307 kts | 358° |
| 2026-05-04 18:10 | 55.50992 | -3.19170 | 13572 ft | 304 kts | 358° |
| 2026-05-04 18:11 | 55.53107 | -3.19041 | 13178 ft | 304 kts | 358° |
| 2026-05-04 18:11 | 55.55216 | -3.18916 | 12806 ft | 302 kts | 358° |
| 2026-05-04 18:11 | 55.57969 | -3.18753 | 12062 ft | 296 kts | 358° |
| 2026-05-04 18:11 | 55.60017 | -3.18633 | 11656 ft | 293 kts | 358° |
| 2026-05-04 18:12 | 55.61393 | -3.18554 | 11397 ft | 292 kts | 358° |
| 2026-05-04 18:12 | 55.63369 | -3.18438 | 11247 ft | 274 kts | 358° |
| 2026-05-04 18:12 | 55.65208 | -3.18320 | 11154 ft | 254 kts | 358° |
| 2026-05-04 18:12 | 55.66934 | -3.18209 | 11048 ft | 245 kts | 358° |
| 2026-05-04 18:13 | 55.68607 | -3.18108 | 10948 ft | 244 kts | 357° |
| 2026-05-04 18:13 | 55.70320 | -3.17803 | 10740 ft | 248 kts | 12° |
| 2026-05-04 18:13 | 55.73466 | -3.15179 | 10154 ft | 252 kts | 22° |
| 2026-05-04 18:14 | 55.75031 | -3.13776 | 9868 ft | 252 kts | 22° |
| 2026-05-04 18:14 | 55.76594 | -3.12379 | 9559 ft | 251 kts | 22° |
| 2026-05-04 18:14 | 55.78141 | -3.10989 | 9277 ft | 248 kts | 23° |
| 2026-05-04 18:15 | 55.81189 | -3.08246 | 8719 ft | 242 kts | 23° |
| 2026-05-04 18:15 | 55.84175 | -3.05576 | 8186 ft | 238 kts | 22° |
| 2026-05-04 18:15 | 55.85717 | -3.04591 | 7910 ft | 232 kts | 7° |
| 2026-05-04 18:16 | 55.87298 | -3.04089 | 7643 ft | 231 kts | 6° |
| 2026-05-04 18:16 | 55.88878 | -3.03588 | 7382 ft | 229 kts | 6° |
| 2026-05-04 18:16 | 55.90445 | -3.03087 | 7126 ft | 228 kts | 6° |
| 2026-05-04 18:17 | 55.93552 | -3.02090 | 6612 ft | 226 kts | 7° |
| 2026-05-04 18:17 | 55.95100 | -3.01857 | 6346 ft | 221 kts | 352° |
| 2026-05-04 18:17 | 55.98093 | -3.02534 | 5820 ft | 217 kts | 349° |
| 2026-05-04 18:18 | 55.99587 | -3.02875 | 5569 ft | 216 kts | 349° |
| 2026-05-04 18:18 | 56.01069 | -3.03245 | 5324 ft | 213 kts | 343° |
| 2026-05-04 18:18 | 56.02331 | -3.04483 | 5105 ft | 207 kts | 312° |
| 2026-05-04 18:18 | 56.03009 | -3.06717 | 4882 ft | 207 kts | 286° |
| 2026-05-04 18:19 | 56.03293 | -3.11791 | 4433 ft | 209 kts | 259° |
| 2026-05-04 18:19 | 56.02760 | -3.14223 | 4074 ft | 215 kts | 242° |
| 2026-05-04 18:19 | 56.01976 | -3.16551 | 3473 ft | 222 kts | 242° |
| 2026-05-04 18:20 | 56.01173 | -3.18937 | 2860 ft | 226 kts | 242° |
| 2026-05-04 18:20 | 56.00359 | -3.21355 | 2278 ft | 227 kts | 242° |
| 2026-05-04 18:20 | 55.99557 | -3.23735 | 1848 ft | 220 kts | 242° |
| 2026-05-04 18:20 | 55.98794 | -3.25997 | 1453 ft | 206 kts | 242° |
| 2026-05-04 18:21 | 55.98082 | -3.28107 | 1173 ft | 188 kts | 241° |
| 2026-05-04 18:21 | 55.97437 | -3.30020 | 911 ft | 171 kts | 241° |
| 2026-05-04 18:21 | 55.96867 | -3.31709 | 678 ft | 148 kts | 242° |
| 2026-05-04 18:21 | 55.96364 | -3.33199 | 469 ft | 134 kts | 242° |
| 2026-05-04 18:22 | 55.95895 | -3.34596 | 277 ft | 131 kts | 242° |
| 2026-05-04 18:22 | 55.95433 | -3.35973 | 127 ft | 127 kts | 243° |
| 2026-05-04 18:22 | 55.95037 | -3.37166 | 112 ft | 92 kts | 239° |
| 2026-05-04 18:22 | 55.94790 | -3.37882 | 114 ft | 40 kts | 238° |
| 2026-05-04 18:23 | 55.94658 | -3.38013 | 115 ft | 15 kts | 153° |
| 2026-05-04 18:23 | 55.94626 | -3.37980 | 113 ft | 4 kts | 151° |
| 2026-05-04 18:23 | 55.94608 | -3.37956 | 112 ft | 3 kts | 139° |
| 2026-05-04 18:23 | 55.94597 | -3.37875 | 116 ft | 8 kts | 75° |
| 2026-05-04 18:24 | 55.94624 | -3.37798 | 114 ft | 7 kts | 57° |
| 2026-05-04 18:24 | 55.94649 | -3.37728 | 114 ft | 6 kts | 57° |
| 2026-05-04 18:24 | 55.94670 | -3.37667 | 113 ft | 5 kts | 59° |
| 2026-05-04 18:24 | 55.94716 | -3.37526 | 115 ft | 18 kts | 60° |
| 2026-05-04 18:25 | 55.94778 | -3.37339 | 111 ft | 17 kts | 59° |
| 2026-05-04 18:25 | 55.94837 | -3.37166 | 113 ft | 16 kts | 58° |
| 2026-05-04 18:25 | 55.94891 | -3.37006 | 114 ft | 14 kts | 60° |
| 2026-05-04 18:25 | 55.94919 | -3.36852 | 116 ft | 13 kts | 109° |
| 2026-05-04 18:26 | 55.94902 | -3.36733 | 114 ft | 10 kts | 66° |
| 2026-05-04 18:26 | 55.94941 | -3.36614 | 115 ft | 14 kts | 59° |
| 2026-05-04 18:26 | 55.94990 | -3.36468 | 112 ft | 10 kts | 59° |
| 2026-05-04 18:26 | 55.94970 | -3.36388 | 113 ft | 8 kts | 150° |
| 2026-05-04 18:27 | 55.94943 | -3.36360 | 114 ft | 1 kts | 149° |